Time,TemperatureF,DewpointF,PressureIn,WindDirection,WindDirectionDegrees,WindSpeedMPH,WindSpeedGustMPH,Humidity,HourlyPrecipIn,Conditions,Clouds,dailyrainin,SolarRadiationWatts/m^2,SoftwareType,DateUTC
2013-06-09 00:02:00,57.0,37.0,-100.00,West,267,4.0,8.0,46,-99.99,,,0.00,0.120000,,2013-06-09 06:02:00,
2013-06-09 00:11:00,57.0,37.0,-100.00,West,267,4.0,8.0,46,-99.99,,,0.00,0.120000,,2013-06-09 06:11:00,
2013-06-09 00:32:00,50.0,38.0,-100.00,SSW,204,4.0,9.0,63,-99.99,,,0.00,0.120000,,2013-06-09 06:32:00,
2013-06-09 00:42:00,50.0,38.0,-100.00,SSW,204,4.0,9.0,63,-99.99,,,0.00,0.120000,,2013-06-09 06:42:00,
2013-06-09 00:52:00,50.0,38.0,-100.00,SSW,204,4.0,9.0,63,-99.99,,,0.00,0.120000,,2013-06-09 06:52:00,
2013-06-09 01:02:00,50.0,38.0,-100.00,SSW,204,4.0,9.0,63,-99.99,,,0.00,0.120000,,2013-06-09 07:02:00,
2013-06-09 01:12:00,50.0,38.0,-100.00,SSW,204,4.0,9.0,63,-99.99,,,0.00,0.120000,,2013-06-09 07:12:00,
2013-06-09 01:42:00,50.0,37.0,-100.00,West,269,4.0,5.0,60,-99.99,,,0.00,0.120000,,2013-06-09 07:42:00,
2013-06-09 01:52:00,50.0,37.0,-100.00,West,269,4.0,5.0,60,-99.99,,,0.00,0.120000,,2013-06-09 07:52:00,
2013-06-09 02:02:00,50.0,37.0,-100.00,West,269,4.0,5.0,60,-99.99,,,0.00,0.120000,,2013-06-09 08:02:00,
2013-06-09 02:12:00,50.0,37.0,-100.00,West,269,4.0,5.0,60,-99.99,,,0.00,0.120000,,2013-06-09 08:12:00,
2013-06-09 02:32:00,47.0,37.0,-100.00,SSW,212,3.0,7.0,67,-99.99,,,0.00,0.120000,,2013-06-09 08:32:00,
2013-06-09 02:42:00,47.0,37.0,-100.00,SSW,212,3.0,7.0,67,-99.99,,,0.00,0.120000,,2013-06-09 08:42:00,
2013-06-09 02:53:00,47.0,37.0,-100.00,SSW,212,3.0,7.0,67,-99.99,,,0.00,0.120000,,2013-06-09 08:53:00,
2013-06-09 03:02:00,47.0,37.0,-100.00,SSW,212,3.0,7.0,67,-99.99,,,0.00,0.120000,,2013-06-09 09:02:00,
2013-06-09 03:12:00,47.0,37.0,-100.00,SSW,212,3.0,7.0,67,-99.99,,,0.00,0.120000,,2013-06-09 09:12:00,
2013-06-09 03:33:00,46.0,37.0,-100.00,NW,316,2.0,4.0,68,-99.99,,,0.00,0.120000,,2013-06-09 09:33:00,
2013-06-09 03:43:00,46.0,37.0,-100.00,NW,316,2.0,4.0,68,-99.99,,,0.00,0.120000,,2013-06-09 09:43:00,
2013-06-09 03:52:00,46.0,37.0,-100.00,NW,316,2.0,4.0,68,-99.99,,,0.00,0.120000,,2013-06-09 09:52:00,
2013-06-09 04:03:00,46.0,37.0,-100.00,NW,316,2.0,4.0,68,-99.99,,,0.00,0.120000,,2013-06-09 10:03:00,
2013-06-09 04:12:00,46.0,37.0,-100.00,NW,316,2.0,4.0,68,-99.99,,,0.00,0.120000,,2013-06-09 10:12:00,
2013-06-09 04:43:00,45.0,37.0,-100.00,WSW,258,2.0,5.0,73,-99.99,,,0.00,0.120000,,2013-06-09 10:43:00,
2013-06-09 04:52:00,45.0,37.0,-100.00,WSW,258,2.0,5.0,73,-99.99,,,0.00,0.120000,,2013-06-09 10:52:00,
2013-06-09 05:02:00,45.0,37.0,-100.00,WSW,258,2.0,5.0,73,-99.99,,,0.00,0.120000,,2013-06-09 11:02:00,
2013-06-09 05:12:00,45.0,37.0,-100.00,WSW,258,2.0,5.0,73,-99.99,,,0.00,0.120000,,2013-06-09 11:12:00,
2013-06-09 05:32:00,42.0,37.0,-100.00,South,182,1.0,3.0,82,-99.99,,,-99.99,0.230000,,2013-06-09 11:32:00,
2013-06-09 05:42:00,42.0,37.0,-100.00,South,182,1.0,3.0,82,-99.99,,,-99.99,0.230000,,2013-06-09 11:42:00,
2013-06-09 05:52:00,42.0,37.0,-100.00,South,182,1.0,3.0,82,-99.99,,,-99.99,0.230000,,2013-06-09 11:52:00,
2013-06-09 06:02:00,42.0,37.0,-100.00,South,182,1.0,3.0,82,-99.99,,,-99.99,0.230000,,2013-06-09 12:02:00,
2013-06-09 06:12:00,42.0,37.0,-100.00,South,182,1.0,3.0,82,-99.99,,,-99.99,0.230000,,2013-06-09 12:12:00,
2013-06-09 06:42:00,44.0,37.0,-100.00,West,277,2.0,4.0,78,-99.99,,,0.00,35.450001,,2013-06-09 12:42:00,
2013-06-09 06:52:00,44.0,37.0,-100.00,West,277,2.0,4.0,78,-99.99,,,0.00,35.450001,,2013-06-09 12:52:00,
2013-06-09 07:02:00,44.0,37.0,-100.00,West,277,2.0,4.0,78,-99.99,,,0.00,35.450001,,2013-06-09 13:02:00,
2013-06-09 07:12:00,44.0,37.0,-100.00,West,277,2.0,4.0,78,-99.99,,,0.00,35.450001,,2013-06-09 13:12:00,
2013-06-09 07:42:00,50.0,39.0,-100.00,ENE,59,1.0,4.0,67,-99.99,,,0.00,193.509995,,2013-06-09 13:42:00,
2013-06-09 07:52:00,50.0,39.0,-100.00,ENE,59,1.0,4.0,67,-99.99,,,0.00,193.509995,,2013-06-09 13:52:00,
2013-06-09 08:02:00,50.0,39.0,-100.00,ENE,59,1.0,4.0,67,-99.99,,,0.00,193.509995,,2013-06-09 14:02:00,
2013-06-09 08:12:00,50.0,39.0,-100.00,ENE,59,1.0,4.0,67,-99.99,,,0.00,193.509995,,2013-06-09 14:12:00,
2013-06-09 08:42:00,54.0,41.0,-100.00,SSW,207,3.0,5.0,61,-99.99,,,0.00,360.980011,,2013-06-09 14:42:00,
2013-06-09 08:52:00,54.0,41.0,-100.00,SSW,207,3.0,5.0,61,-99.99,,,0.00,360.980011,,2013-06-09 14:52:00,
2013-06-09 09:02:00,54.0,41.0,-100.00,SSW,207,3.0,5.0,61,-99.99,,,0.00,360.980011,,2013-06-09 15:02:00,
2013-06-09 09:12:00,54.0,41.0,-100.00,SSW,207,3.0,5.0,61,-99.99,,,0.00,360.980011,,2013-06-09 15:12:00,
2013-06-09 09:43:00,61.0,40.0,-100.00,WSW,237,2.0,6.0,46,-99.99,,,0.00,541.349976,,2013-06-09 15:43:00,
2013-06-09 09:53:00,61.0,40.0,-100.00,WSW,237,2.0,6.0,46,-99.99,,,0.00,541.349976,,2013-06-09 15:53:00,
2013-06-09 10:03:00,61.0,40.0,-100.00,WSW,237,2.0,6.0,46,-99.99,,,0.00,541.349976,,2013-06-09 16:03:00,
2013-06-09 10:13:00,61.0,40.0,-100.00,WSW,237,2.0,6.0,46,-99.99,,,0.00,541.349976,,2013-06-09 16:13:00,
2013-06-09 10:33:00,66.0,44.0,-100.00,NNE,13,4.0,8.0,45,-99.99,,,0.00,721.729980,,2013-06-09 16:33:00,
2013-06-09 10:42:00,66.0,44.0,-100.00,NNE,13,4.0,8.0,45,-99.99,,,0.00,721.729980,,2013-06-09 16:42:00,
2013-06-09 10:53:00,66.0,44.0,-100.00,NNE,13,4.0,8.0,45,-99.99,,,0.00,721.729980,,2013-06-09 16:53:00,
2013-06-09 11:02:00,66.0,44.0,-100.00,NNE,13,4.0,8.0,45,-99.99,,,0.00,721.729980,,2013-06-09 17:02:00,
2013-06-09 11:12:00,66.0,44.0,-100.00,NNE,13,4.0,8.0,45,-99.99,,,0.00,721.729980,,2013-06-09 17:12:00,
2013-06-09 11:42:00,72.0,35.0,-100.00,SW,226,10.0,18.0,25,-99.99,,,0.00,855.380005,,2013-06-09 17:42:00,
2013-06-09 11:52:00,72.0,35.0,-100.00,SW,226,10.0,18.0,25,-99.99,,,0.00,855.380005,,2013-06-09 17:52:00,
2013-06-09 12:02:00,72.0,35.0,-100.00,SW,226,10.0,18.0,25,-99.99,,,0.00,855.380005,,2013-06-09 18:02:00,
2013-06-09 12:12:00,72.0,35.0,-100.00,SW,226,10.0,18.0,25,-99.99,,,0.00,855.380005,,2013-06-09 18:12:00,
2013-06-09 12:42:00,75.0,29.0,-100.00,WSW,240,10.0,20.0,18,-99.99,,,0.00,949.520020,,2013-06-09 18:42:00,
2013-06-09 12:52:00,75.0,29.0,-100.00,WSW,240,10.0,20.0,18,-99.99,,,0.00,949.520020,,2013-06-09 18:52:00,
2013-06-09 13:02:00,75.0,29.0,-100.00,WSW,240,10.0,20.0,18,-99.99,,,0.00,949.520020,,2013-06-09 19:02:00,
2013-06-09 13:12:00,75.0,29.0,-100.00,WSW,240,10.0,20.0,18,-99.99,,,0.00,949.520020,,2013-06-09 19:12:00,
2013-06-09 13:32:00,77.0,30.0,-100.00,WSW,240,14.0,24.0,17,-99.99,,,0.00,990.190002,,2013-06-09 19:32:00,
2013-06-09 13:42:00,77.0,30.0,-100.00,WSW,240,14.0,24.0,17,-99.99,,,0.00,990.190002,,2013-06-09 19:42:00,
2013-06-09 13:52:00,77.0,30.0,-100.00,WSW,240,14.0,24.0,17,-99.99,,,0.00,990.190002,,2013-06-09 19:52:00,
2013-06-09 14:02:00,77.0,30.0,-100.00,WSW,240,14.0,24.0,17,-99.99,,,0.00,990.190002,,2013-06-09 20:02:00,
2013-06-09 14:12:00,77.0,30.0,-100.00,WSW,240,14.0,24.0,17,-99.99,,,0.00,990.190002,,2013-06-09 20:12:00,
2013-06-09 15:12:00,79.0,26.0,-100.00,WSW,245,12.0,25.0,14,-99.99,,,0.00,986.710022,,2013-06-09 21:12:00,
2013-06-09 15:43:00,80.0,25.0,-100.00,WSW,245,13.0,24.0,13,-99.99,,,0.00,935.570007,,2013-06-09 21:43:00,
2013-06-09 15:53:00,80.0,25.0,-100.00,WSW,245,13.0,24.0,13,-99.99,,,0.00,935.570007,,2013-06-09 21:53:00,
2013-06-09 16:02:00,80.0,25.0,-100.00,WSW,245,13.0,24.0,13,-99.99,,,0.00,935.570007,,2013-06-09 22:02:00,
2013-06-09 16:12:00,80.0,25.0,-100.00,WSW,245,13.0,24.0,13,-99.99,,,0.00,935.570007,,2013-06-09 22:12:00,
2013-06-09 16:33:00,81.0,20.0,-100.00,WNW,283,19.0,35.0,9,-99.99,,,0.00,833.299988,,2013-06-09 22:33:00,
2013-06-09 16:42:00,81.0,20.0,-100.00,WNW,283,19.0,35.0,9,-99.99,,,0.00,833.299988,,2013-06-09 22:42:00,
2013-06-09 16:52:00,81.0,20.0,-100.00,WNW,283,19.0,35.0,9,-99.99,,,0.00,833.299988,,2013-06-09 22:52:00,
2013-06-09 17:02:00,81.0,20.0,-100.00,WNW,283,19.0,35.0,9,-99.99,,,0.00,833.299988,,2013-06-09 23:02:00,
2013-06-09 17:12:00,81.0,20.0,-100.00,WNW,283,19.0,35.0,9,-99.99,,,0.00,833.299988,,2013-06-09 23:12:00,
2013-06-09 17:32:00,81.0,19.0,-100.00,West,281,21.0,31.0,9,-99.99,,,0.00,687.330017,,2013-06-09 23:32:00,
2013-06-09 17:42:00,81.0,19.0,-100.00,West,281,21.0,31.0,9,-99.99,,,0.00,687.330017,,2013-06-09 23:42:00,
2013-06-09 17:52:00,81.0,19.0,-100.00,West,281,21.0,31.0,9,-99.99,,,0.00,687.330017,,2013-06-09 23:52:00,
2013-06-09 18:02:00,81.0,19.0,-100.00,West,281,21.0,31.0,9,-99.99,,,0.00,687.330017,,2013-06-10 00:02:00,
2013-06-09 18:12:00,81.0,19.0,-100.00,West,281,21.0,31.0,9,-99.99,,,0.00,687.330017,,2013-06-10 00:12:00,
2013-06-09 18:42:00,80.0,17.0,-100.00,WNW,291,14.0,27.0,9,-99.99,,,0.00,517.880005,,2013-06-10 00:42:00,
2013-06-09 18:52:00,80.0,17.0,-100.00,WNW,291,14.0,27.0,9,-99.99,,,0.00,517.880005,,2013-06-10 00:52:00,
2013-06-09 19:02:00,80.0,17.0,-100.00,WNW,291,14.0,27.0,9,-99.99,,,0.00,517.880005,,2013-06-10 01:02:00,
2013-06-09 19:12:00,80.0,17.0,-100.00,WNW,291,14.0,27.0,9,-99.99,,,0.00,517.880005,,2013-06-10 01:12:00,
2013-06-09 19:32:00,76.0,23.0,-100.00,NNW,343,15.0,24.0,13,-99.99,,,0.00,335.760010,,2013-06-10 01:32:00,
2013-06-09 19:42:00,76.0,23.0,-100.00,NNW,343,15.0,24.0,13,-99.99,,,0.00,335.760010,,2013-06-10 01:42:00,
2013-06-09 19:52:00,76.0,23.0,-100.00,NNW,343,15.0,24.0,13,-99.99,,,0.00,335.760010,,2013-06-10 01:52:00,
2013-06-09 20:02:00,76.0,23.0,-100.00,NNW,343,15.0,24.0,13,-99.99,,,0.00,335.760010,,2013-06-10 02:02:00,
2013-06-09 20:12:00,76.0,23.0,-100.00,NNW,343,15.0,24.0,13,-99.99,,,0.00,335.760010,,2013-06-10 02:12:00,
2013-06-09 20:32:00,70.0,28.0,-100.00,North,4,15.0,21.0,21,-99.99,,,0.00,158.639999,,2013-06-10 02:32:00,
2013-06-09 20:42:00,70.0,28.0,-100.00,North,4,15.0,21.0,21,-99.99,,,0.00,158.639999,,2013-06-10 02:42:00,
2013-06-09 20:52:00,70.0,28.0,-100.00,North,4,15.0,21.0,21,-99.99,,,0.00,158.639999,,2013-06-10 02:52:00,
2013-06-09 21:02:00,70.0,28.0,-100.00,North,4,15.0,21.0,21,-99.99,,,0.00,158.639999,,2013-06-10 03:02:00,
2013-06-09 21:12:00,70.0,28.0,-100.00,North,4,15.0,21.0,21,-99.99,,,0.00,158.639999,,2013-06-10 03:12:00,
2013-06-09 21:33:00,64.0,28.0,-100.00,NNE,20,14.0,20.0,25,-99.99,,,0.00,10.460000,,2013-06-10 03:33:00,
2013-06-09 21:43:00,64.0,28.0,-100.00,NNE,20,14.0,20.0,25,-99.99,,,0.00,10.460000,,2013-06-10 03:43:00,
2013-06-09 21:53:00,64.0,28.0,-100.00,NNE,20,14.0,20.0,25,-99.99,,,0.00,10.460000,,2013-06-10 03:53:00,
2013-06-09 22:03:00,64.0,28.0,-100.00,NNE,20,14.0,20.0,25,-99.99,,,0.00,10.460000,,2013-06-10 04:03:00,
2013-06-09 22:12:00,64.0,28.0,-100.00,NNE,20,14.0,20.0,25,-99.99,,,0.00,10.460000,,2013-06-10 04:12:00,
2013-06-09 22:33:00,62.0,25.0,-100.00,NNE,12,11.0,17.0,24,-99.99,,,0.00,0.120000,,2013-06-10 04:33:00,
2013-06-09 22:42:00,62.0,25.0,-100.00,NNE,12,11.0,17.0,24,-99.99,,,0.00,0.120000,,2013-06-10 04:42:00,
2013-06-09 22:52:00,62.0,25.0,-100.00,NNE,12,11.0,17.0,24,-99.99,,,0.00,0.120000,,2013-06-10 04:52:00,
2013-06-09 23:02:00,62.0,25.0,-100.00,NNE,12,11.0,17.0,24,-99.99,,,0.00,0.120000,,2013-06-10 05:02:00,
2013-06-09 23:12:00,62.0,25.0,-100.00,NNE,12,11.0,17.0,24,-99.99,,,0.00,0.120000,,2013-06-10 05:12:00,
2013-06-09 23:32:00,62.0,24.0,-100.00,NNW,337,15.0,23.0,23,-99.99,,,0.00,0.120000,,2013-06-10 05:32:00,
2013-06-09 23:42:00,62.0,24.0,-100.00,NNW,337,15.0,23.0,23,-99.99,,,0.00,0.120000,,2013-06-10 05:42:00,
2013-06-09 23:52:00,62.0,24.0,-100.00,NNW,337,15.0,23.0,23,-99.99,,,0.00,0.120000,,2013-06-10 05:52:00,